createdAt,value
2017-07-29T00:00:47.334Z,990.87
2017-07-29T00:01:47.337Z,990.83
2017-07-29T00:02:47.343Z,990.85
2017-07-29T00:03:47.342Z,990.86
2017-07-29T00:04:47.342Z,990.86
2017-07-29T00:05:47.345Z,990.84
2017-07-29T00:06:47.347Z,990.85
2017-07-29T00:07:47.354Z,990.85
2017-07-29T00:08:47.351Z,990.82
2017-07-29T00:09:47.354Z,990.79
2017-07-29T00:10:47.399Z,990.77
2017-07-29T00:11:47.398Z,990.77
2017-07-29T00:12:47.358Z,990.76
2017-07-29T00:13:47.361Z,990.85
2017-07-29T00:14:47.364Z,990.78
2017-07-29T00:15:47.365Z,990.78
2017-07-29T00:16:47.369Z,990.82
2017-07-29T00:17:47.369Z,990.79
2017-07-29T00:18:47.370Z,990.79
2017-07-29T00:19:47.373Z,990.75
2017-07-29T00:20:47.375Z,990.75
2017-07-29T00:21:47.377Z,990.75
2017-07-29T00:22:47.379Z,990.81
2017-07-29T00:23:47.382Z,990.8
2017-07-29T00:24:47.385Z,990.78
2017-07-29T00:25:47.385Z,990.77
2017-07-29T00:26:47.390Z,990.78
2017-07-29T00:27:47.390Z,990.82
2017-07-29T00:28:47.392Z,990.78
2017-07-29T00:29:47.394Z,990.82
2017-07-29T00:30:47.397Z,990.82
2017-07-29T00:31:47.398Z,990.8
2017-07-29T00:32:47.401Z,990.81
2017-07-29T00:33:47.403Z,990.82
2017-07-29T00:34:47.405Z,990.82
2017-07-29T00:35:47.407Z,990.82
2017-07-29T00:36:47.409Z,990.78
2017-07-29T00:37:47.411Z,990.85
2017-07-29T00:38:47.413Z,990.85
2017-07-29T00:39:47.415Z,990.86
2017-07-29T00:40:47.415Z,990.83
2017-07-29T00:41:47.419Z,990.85
2017-07-29T00:42:47.422Z,990.83
2017-07-29T00:43:47.422Z,990.84
2017-07-29T00:44:47.423Z,990.79
2017-07-29T00:45:47.425Z,990.85
2017-07-29T00:46:47.426Z,990.82
2017-07-29T00:47:47.430Z,990.84
2017-07-29T00:48:47.430Z,990.82
2017-07-29T00:49:47.431Z,990.8
2017-07-29T00:50:47.433Z,990.78
2017-07-29T00:51:47.436Z,990.79
2017-07-29T00:52:47.436Z,990.77
2017-07-29T00:53:47.436Z,990.74
2017-07-29T00:54:47.439Z,990.72
2017-07-29T00:55:47.439Z,990.71
2017-07-29T00:56:47.440Z,990.68
2017-07-29T00:57:47.445Z,990.71
2017-07-29T00:58:47.446Z,990.71
2017-07-29T00:59:47.447Z,990.73
2017-07-29T01:00:47.447Z,990.7
2017-07-29T01:01:47.454Z,990.71
2017-07-29T01:02:47.450Z,990.75
2017-07-29T01:03:47.457Z,990.78
2017-07-29T01:04:47.470Z,990.76
2017-07-29T01:05:47.455Z,990.76
2017-07-29T01:06:47.459Z,990.81
2017-07-29T01:07:47.458Z,990.78
2017-07-29T01:08:47.460Z,990.8
2017-07-29T01:09:47.487Z,990.84
2017-07-29T01:10:47.463Z,990.84
2017-07-29T01:11:47.465Z,990.84
2017-07-29T01:12:47.465Z,990.82
2017-07-29T01:13:47.468Z,990.81
2017-07-29T01:14:47.469Z,990.78
2017-07-29T01:15:47.470Z,990.79
2017-07-29T01:16:47.473Z,990.77
2017-07-29T01:17:47.475Z,990.78
2017-07-29T01:18:47.474Z,990.72
2017-07-29T01:19:47.512Z,990.74
2017-07-29T01:20:47.478Z,990.68
2017-07-29T01:21:47.480Z,990.73
2017-07-29T01:22:47.483Z,990.74
2017-07-29T01:23:47.484Z,990.72
2017-07-29T01:24:47.487Z,990.7
2017-07-29T01:25:47.490Z,990.69
2017-07-29T01:26:47.491Z,990.68
2017-07-29T01:27:47.490Z,990.65
2017-07-29T01:28:47.493Z,990.7
2017-07-29T01:29:50.649Z,990.72
2017-07-29T01:30:47.495Z,990.68
2017-07-29T01:31:47.496Z,990.64
2017-07-29T01:32:47.500Z,990.67
2017-07-29T01:33:47.501Z,990.65
2017-07-29T01:34:47.512Z,990.69
2017-07-29T01:35:47.503Z,990.68
2017-07-29T01:36:47.508Z,990.71
2017-07-29T01:37:47.510Z,990.65
2017-07-29T01:38:47.508Z,990.68
2017-07-29T01:39:47.513Z,990.72
2017-07-29T01:40:47.511Z,990.72
2017-07-29T01:41:47.514Z,990.71
2017-07-29T01:42:47.537Z,990.67
2017-07-29T01:43:47.517Z,990.68
2017-07-29T01:44:47.520Z,990.69
2017-07-29T01:45:47.523Z,990.69
2017-07-29T01:46:47.546Z,990.67
2017-07-29T01:47:47.523Z,990.69
2017-07-29T01:48:47.524Z,990.74
2017-07-29T01:49:47.525Z,990.7
2017-07-29T01:50:47.529Z,990.68
2017-07-29T01:51:47.531Z,990.65
2017-07-29T01:52:47.530Z,990.68
2017-07-29T01:53:47.532Z,990.68
2017-07-29T01:54:47.533Z,990.7
2017-07-29T01:55:47.535Z,990.71
2017-07-29T01:56:47.536Z,990.75
2017-07-29T01:57:47.538Z,990.76
2017-07-29T01:58:47.539Z,990.78
2017-07-29T01:59:47.541Z,990.77
2017-07-29T02:00:47.545Z,990.77
2017-07-29T02:01:47.544Z,990.74
2017-07-29T02:02:47.545Z,990.74
2017-07-29T02:03:47.547Z,990.76
2017-07-29T02:04:47.547Z,990.7
2017-07-29T02:05:47.550Z,990.75
2017-07-29T02:06:47.556Z,990.73
2017-07-29T02:07:47.554Z,990.73
2017-07-29T02:08:47.554Z,990.74
2017-07-29T02:09:47.557Z,990.7
2017-07-29T02:10:47.559Z,990.66
2017-07-29T02:11:47.560Z,990.65
2017-07-29T02:12:47.562Z,990.64
2017-07-29T02:13:47.566Z,990.62
2017-07-29T02:14:47.565Z,990.61
2017-07-29T02:15:47.766Z,990.63
2017-07-29T02:16:47.569Z,990.61
2017-07-29T02:17:47.570Z,990.62
2017-07-29T02:18:47.571Z,990.63
2017-07-29T02:19:47.573Z,990.63
2017-07-29T02:20:47.577Z,990.6
2017-07-29T02:21:47.577Z,990.63
2017-07-29T02:22:47.577Z,990.62
2017-07-29T02:23:47.579Z,990.58
2017-07-29T02:24:47.581Z,990.64
2017-07-29T02:25:47.581Z,990.65
2017-07-29T02:26:47.583Z,990.65
2017-07-29T02:27:47.586Z,990.65
2017-07-29T02:28:47.588Z,990.67
2017-07-29T02:29:47.587Z,990.67
2017-07-29T02:30:48.090Z,990.7
2017-07-29T02:31:47.592Z,990.73
2017-07-29T02:32:47.592Z,990.74
2017-07-29T02:33:47.593Z,990.75
2017-07-29T02:34:47.598Z,990.75
2017-07-29T02:35:47.595Z,990.76
2017-07-29T02:36:47.597Z,990.76
2017-07-29T02:37:47.599Z,990.8
2017-07-29T02:38:47.601Z,990.79
2017-07-29T02:39:47.608Z,990.78
2017-07-29T02:40:47.602Z,990.79
2017-07-29T02:41:47.603Z,990.81
2017-07-29T02:42:47.604Z,990.86
2017-07-29T02:43:47.607Z,990.89
2017-07-29T02:44:47.606Z,990.88
2017-07-29T02:45:47.607Z,990.87
2017-07-29T02:46:47.621Z,990.92
2017-07-29T02:47:47.614Z,990.9
2017-07-29T02:48:47.613Z,990.9
2017-07-29T02:49:47.613Z,990.89
2017-07-29T02:50:47.615Z,990.91
2017-07-29T02:51:47.614Z,990.88
2017-07-29T02:52:47.619Z,990.88
2017-07-29T02:53:47.618Z,990.95
2017-07-29T02:54:47.620Z,990.91
2017-07-29T02:55:47.619Z,990.95
2017-07-29T02:56:47.623Z,990.95
2017-07-29T02:57:47.623Z,990.96
2017-07-29T02:58:47.640Z,990.9
2017-07-29T02:59:47.624Z,990.89
2017-07-29T03:00:47.636Z,990.92
2017-07-29T03:01:47.629Z,990.93
2017-07-29T03:02:47.638Z,990.98
2017-07-29T03:03:47.635Z,990.99
2017-07-29T03:04:47.642Z,990.96
2017-07-29T03:05:47.640Z,990.95
2017-07-29T03:06:47.637Z,990.97
2017-07-29T03:07:47.641Z,990.95
2017-07-29T03:08:47.640Z,990.92
2017-07-29T03:09:47.643Z,990.9
2017-07-29T03:10:47.643Z,990.9
2017-07-29T03:11:47.641Z,990.87
2017-07-29T03:12:47.643Z,990.88
2017-07-29T03:13:47.644Z,990.84
2017-07-29T03:14:47.644Z,990.88
2017-07-29T03:15:47.646Z,990.9
2017-07-29T03:16:47.647Z,990.88
2017-07-29T03:17:47.648Z,990.93
2017-07-29T03:18:47.648Z,990.9
2017-07-29T03:19:47.655Z,990.89
2017-07-29T03:20:47.651Z,990.91
2017-07-29T03:21:47.651Z,990.92
2017-07-29T03:22:47.661Z,990.93
2017-07-29T03:23:47.665Z,990.92
2017-07-29T03:24:47.664Z,990.92
2017-07-29T03:25:47.656Z,990.87
2017-07-29T03:26:47.665Z,990.87
2017-07-29T03:27:47.664Z,990.84
2017-07-29T03:28:47.666Z,990.85
2017-07-29T03:29:47.665Z,990.86
2017-07-29T03:30:47.666Z,990.8
2017-07-29T03:31:47.669Z,990.84
2017-07-29T03:32:47.666Z,990.84
2017-07-29T03:33:47.669Z,990.92
2017-07-29T03:34:47.668Z,990.9
2017-07-29T03:35:47.667Z,990.95
2017-07-29T03:36:47.670Z,990.92
2017-07-29T03:37:47.668Z,990.99
2017-07-29T03:38:47.671Z,991.04
2017-07-29T03:39:47.671Z,991.03
2017-07-29T03:40:47.672Z,991.01
2017-07-29T03:41:47.673Z,991.03
2017-07-29T03:42:47.673Z,991.03
2017-07-29T03:43:47.674Z,991.02
2017-07-29T03:44:47.675Z,991.04
2017-07-29T03:45:47.682Z,991.07
2017-07-29T03:46:47.677Z,991.09
2017-07-29T03:47:47.678Z,991.08
2017-07-29T03:48:47.680Z,991.07
2017-07-29T03:49:47.685Z,991.11
2017-07-29T03:50:47.680Z,991.13
2017-07-29T03:51:47.682Z,991.14
2017-07-29T03:52:47.690Z,991.17
2017-07-29T03:53:47.684Z,991.13
2017-07-29T03:54:47.686Z,991.15
2017-07-29T03:55:47.686Z,991.16
2017-07-29T03:56:47.688Z,991.18
2017-07-29T03:57:47.688Z,991.12
2017-07-29T03:58:47.688Z,991.17
2017-07-29T03:59:47.691Z,991.14
2017-07-29T04:00:47.712Z,991.23
2017-07-29T04:01:47.691Z,991.24
2017-07-29T04:02:47.697Z,991.24
2017-07-29T04:03:47.695Z,991.26
2017-07-29T04:04:47.694Z,991.23
2017-07-29T04:05:47.697Z,991.25
2017-07-29T04:06:47.701Z,991.2
2017-07-29T04:07:47.700Z,991.23
2017-07-29T04:08:47.700Z,991.18
2017-07-29T04:09:47.703Z,991.18
2017-07-29T04:10:47.703Z,991.21
2017-07-29T04:11:47.702Z,991.12
2017-07-29T04:12:47.703Z,991.13
2017-07-29T04:13:47.703Z,991.15
2017-07-29T04:14:47.707Z,991.17
2017-07-29T04:15:47.706Z,991.14
2017-07-29T04:16:47.708Z,991.14
2017-07-29T04:17:47.708Z,991.12
2017-07-29T04:18:47.709Z,991.13
2017-07-29T04:19:47.709Z,991.15
2017-07-29T04:20:47.712Z,991.11
2017-07-29T04:21:47.713Z,991.12
2017-07-29T04:22:47.715Z,991.15
2017-07-29T04:23:47.714Z,991.18
2017-07-29T04:24:47.716Z,991.23
2017-07-29T04:25:47.719Z,991.23
2017-07-29T04:26:47.718Z,991.21
2017-07-29T04:27:47.721Z,991.12
2017-07-29T04:28:47.720Z,991.15
2017-07-29T04:29:47.722Z,991.15
2017-07-29T04:30:47.723Z,991.13
2017-07-29T04:31:47.775Z,991.16
2017-07-29T04:32:47.726Z,991.2
2017-07-29T04:33:47.729Z,991.2
2017-07-29T04:34:47.730Z,991.24
2017-07-29T04:35:47.732Z,991.26
2017-07-29T04:36:47.734Z,991.29
2017-07-29T04:37:47.736Z,991.31
2017-07-29T04:38:47.738Z,991.31
2017-07-29T04:39:47.742Z,991.23
2017-07-29T04:40:47.747Z,991.26
2017-07-29T04:41:47.746Z,991.23
2017-07-29T04:42:47.759Z,991.18
2017-07-29T04:43:47.759Z,991.24
2017-07-29T04:44:47.760Z,991.26
2017-07-29T04:45:47.766Z,991.26
2017-07-29T04:46:51.118Z,991.23
2017-07-29T04:47:47.767Z,991.24
2017-07-29T04:48:47.770Z,991.22
2017-07-29T04:49:47.774Z,991.23
2017-07-29T04:50:47.777Z,991.18
2017-07-29T04:51:47.781Z,991.21
2017-07-29T04:52:47.784Z,991.14
2017-07-29T04:53:47.791Z,991.14
2017-07-29T04:54:47.793Z,991.19
2017-07-29T04:55:47.796Z,991.17
2017-07-29T04:56:47.800Z,991.21
2017-07-29T04:57:47.811Z,991.19
2017-07-29T04:58:47.811Z,991.19
2017-07-29T04:59:47.814Z,991.2
2017-07-29T05:00:47.816Z,991.16
2017-07-29T05:01:47.820Z,991.18
2017-07-29T05:02:47.824Z,991.18
2017-07-29T05:03:47.854Z,991.21
2017-07-29T05:04:47.833Z,991.14
2017-07-29T05:05:47.847Z,991.24
2017-07-29T05:06:47.855Z,991.11
2017-07-29T05:07:47.845Z,991.14
2017-07-29T05:08:47.858Z,991.11
2017-07-29T05:09:47.854Z,991.1
2017-07-29T05:10:47.859Z,991.09
2017-07-29T05:11:47.864Z,991.11
2017-07-29T05:12:47.869Z,991.14
2017-07-29T05:13:47.883Z,991.15
2017-07-29T05:14:47.881Z,991.15
2017-07-29T05:15:47.887Z,991.16
2017-07-29T05:16:47.884Z,991.37
2017-07-29T05:17:47.890Z,991.15
2017-07-29T05:18:47.894Z,991.16
2017-07-29T05:19:47.910Z,991.1
2017-07-29T05:20:47.915Z,991.1
2017-07-29T05:21:47.927Z,991.14
2017-07-29T05:22:47.913Z,991.18
2017-07-29T05:23:47.916Z,991.16
2017-07-29T05:24:47.927Z,991.13
2017-07-29T05:25:47.920Z,991.1
2017-07-29T05:26:47.929Z,991.16
2017-07-29T05:27:47.930Z,991.17
2017-07-29T05:28:47.936Z,991.17
2017-07-29T05:29:47.933Z,991.37
2017-07-29T05:30:47.945Z,991.17
2017-07-29T05:31:47.945Z,991.19
2017-07-29T05:32:49.055Z,991.19
2017-07-29T05:33:47.953Z,991.17
2017-07-29T05:34:47.954Z,991.24
2017-07-29T05:35:47.960Z,991.19
2017-07-29T05:36:47.962Z,991.24
2017-07-29T05:37:47.961Z,991.25
2017-07-29T05:38:47.977Z,991.25
2017-07-29T05:39:47.980Z,991.27
2017-07-29T05:40:47.978Z,991.23
2017-07-29T05:41:47.982Z,991.46
2017-07-29T05:42:47.986Z,991.49
2017-07-29T05:43:47.990Z,991.48
2017-07-29T05:44:47.987Z,991.49
2017-07-29T05:45:47.997Z,991.52
2017-07-29T05:46:47.996Z,991.49
2017-07-29T05:47:48.014Z,991.45
2017-07-29T05:48:48.016Z,991.42
2017-07-29T05:49:48.010Z,991.43
2017-07-29T05:50:48.010Z,991.47
2017-07-29T05:51:48.016Z,991.48
2017-07-29T05:52:48.026Z,991.49
2017-07-29T05:53:48.028Z,991.48
2017-07-29T05:54:48.033Z,991.48
2017-07-29T05:55:48.038Z,991.49
2017-07-29T05:56:48.045Z,991.54
2017-07-29T05:57:48.051Z,991.57
2017-07-29T05:58:48.055Z,991.57
2017-07-29T05:59:48.062Z,991.61
2017-07-29T06:00:48.069Z,991.56
2017-07-29T06:01:48.073Z,991.6
2017-07-29T06:02:48.082Z,991.62
2017-07-29T06:03:48.088Z,991.54
2017-07-29T06:04:48.094Z,991.56
2017-07-29T06:05:48.100Z,991.61
2017-07-29T06:06:48.107Z,991.6
2017-07-29T06:07:48.134Z,991.62
2017-07-29T06:08:48.148Z,991.64
2017-07-29T06:09:48.131Z,991.62
2017-07-29T06:10:48.137Z,991.64
2017-07-29T06:11:48.143Z,991.65
2017-07-29T06:12:48.151Z,991.66
2017-07-29T06:13:48.159Z,991.64
2017-07-29T06:14:48.166Z,991.6
2017-07-29T06:15:48.174Z,991.64
2017-07-29T06:16:48.181Z,991.59
2017-07-29T06:17:48.192Z,991.63
2017-07-29T06:18:48.196Z,991.65
2017-07-29T06:19:48.205Z,991.66
2017-07-29T06:20:48.212Z,991.66
2017-07-29T06:21:48.222Z,991.67
2017-07-29T06:22:48.298Z,991.7
2017-07-29T06:23:48.248Z,991.71
2017-07-29T06:24:48.246Z,991.68
2017-07-29T06:25:48.254Z,991.67
2017-07-29T06:26:48.262Z,991.7
2017-07-29T06:27:48.271Z,991.7
2017-07-29T06:28:48.280Z,991.73
2017-07-29T06:29:48.287Z,991.7
2017-07-29T06:30:48.296Z,991.72
2017-07-29T06:31:48.309Z,991.74
2017-07-29T06:32:48.313Z,991.7
2017-07-29T06:33:48.322Z,991.72
2017-07-29T06:34:48.330Z,991.74
2017-07-29T06:35:48.340Z,991.75
2017-07-29T06:36:48.349Z,991.72
2017-07-29T06:37:48.361Z,991.71
2017-07-29T06:38:48.365Z,991.71
2017-07-29T06:39:48.377Z,991.7
2017-07-29T06:40:48.397Z,991.66
2017-07-29T06:41:48.393Z,991.67
2017-07-29T06:42:48.402Z,991.57
2017-07-29T06:43:48.412Z,991.6
2017-07-29T06:44:48.421Z,991.54
2017-07-29T06:45:48.429Z,991.58
2017-07-29T06:46:48.438Z,991.58
2017-07-29T06:47:48.463Z,991.67
2017-07-29T06:48:48.506Z,991.73
2017-07-29T06:49:48.463Z,991.74
2017-07-29T06:50:48.472Z,991.71
2017-07-29T06:51:48.483Z,991.76
2017-07-29T06:52:48.489Z,991.64
2017-07-29T06:53:48.498Z,991.69
2017-07-29T06:54:48.521Z,991.72
2017-07-29T06:55:48.530Z,991.62
2017-07-29T06:56:48.532Z,991.64
2017-07-29T06:57:48.540Z,991.69
2017-07-29T06:58:48.538Z,991.71
2017-07-29T06:59:48.546Z,991.76
2017-07-29T07:00:48.553Z,991.7
2017-07-29T07:01:48.560Z,991.78
2017-07-29T07:02:48.576Z,991.8
2017-07-29T07:03:49.577Z,991.74
2017-07-29T07:04:48.583Z,991.81
2017-07-29T07:05:48.595Z,991.86
2017-07-29T07:06:48.599Z,991.69
2017-07-29T07:07:48.607Z,991.72
2017-07-29T07:08:48.615Z,991.72
2017-07-29T07:09:48.623Z,991.68
2017-07-29T07:10:48.632Z,991.73
2017-07-29T07:11:48.638Z,991.73
2017-07-29T07:12:48.646Z,991.71
2017-07-29T07:13:48.653Z,991.73
2017-07-29T07:14:48.665Z,991.81
2017-07-29T07:15:48.667Z,991.75
2017-07-29T07:16:48.678Z,991.78
2017-07-29T07:17:48.684Z,991.83
2017-07-29T07:18:48.691Z,991.81
2017-07-29T07:19:48.698Z,991.86
2017-07-29T07:20:48.704Z,991.84
2017-07-29T07:21:48.713Z,991.84
2017-07-29T07:22:48.719Z,991.84
2017-07-29T07:23:48.726Z,991.84
2017-07-29T07:24:48.734Z,991.88
2017-07-29T07:25:48.740Z,991.89
2017-07-29T07:26:48.748Z,991.81
2017-07-29T07:27:48.754Z,991.79
2017-07-29T07:28:48.765Z,991.85
2017-07-29T07:29:48.775Z,991.81
2017-07-29T07:30:48.778Z,991.86
2017-07-29T07:31:48.784Z,991.86
2017-07-29T07:32:48.791Z,991.84
2017-07-29T07:33:48.799Z,991.83
2017-07-29T07:34:48.813Z,991.85
2017-07-29T07:35:48.819Z,991.88
2017-07-29T07:36:48.821Z,991.86
2017-07-29T07:37:48.828Z,991.87
2017-07-29T07:38:48.838Z,991.89
2017-07-29T07:39:48.844Z,991.96
2017-07-29T07:40:48.850Z,991.84
2017-07-29T07:41:48.859Z,991.87
2017-07-29T07:42:48.867Z,991.92
2017-07-29T07:43:48.872Z,991.89
2017-07-29T07:44:48.882Z,991.97
2017-07-29T07:45:48.886Z,991.92
2017-07-29T07:46:48.893Z,991.93
2017-07-29T07:47:48.901Z,991.85
2017-07-29T07:48:48.915Z,991.86
2017-07-29T07:49:48.914Z,991.91
2017-07-29T07:50:48.922Z,991.99
2017-07-29T07:51:48.927Z,991.95
2017-07-29T07:52:48.935Z,991.97
2017-07-29T07:53:48.943Z,992
2017-07-29T07:54:48.950Z,992.03
2017-07-29T07:55:48.963Z,992.04
2017-07-29T07:56:48.963Z,992.1
2017-07-29T07:57:48.970Z,992.02
2017-07-29T07:58:48.976Z,992.06
2017-07-29T07:59:48.983Z,992.04
2017-07-29T08:00:48.990Z,992.02
2017-07-29T08:01:48.997Z,991.97
2017-07-29T08:02:49.003Z,991.96
2017-07-29T08:03:49.011Z,992
2017-07-29T08:04:49.019Z,991.96
2017-07-29T08:05:49.027Z,991.95
2017-07-29T08:06:49.035Z,991.95
2017-07-29T08:07:49.043Z,991.97
2017-07-29T08:08:49.050Z,991.94
2017-07-29T08:09:49.058Z,991.92
2017-07-29T08:10:49.068Z,991.99
2017-07-29T08:11:49.076Z,991.97
2017-07-29T08:12:49.085Z,991.97
2017-07-29T08:13:49.093Z,991.96
2017-07-29T08:14:49.103Z,991.96
2017-07-29T08:15:49.112Z,991.99
2017-07-29T08:16:49.129Z,991.97
2017-07-29T08:17:49.128Z,992
2017-07-29T08:18:49.139Z,992.01
2017-07-29T08:19:49.148Z,992.02
2017-07-29T08:20:49.157Z,992.01
2017-07-29T08:21:49.167Z,992.05
2017-07-29T08:22:49.176Z,992.01
2017-07-29T08:23:49.184Z,991.98
2017-07-29T08:24:49.192Z,992.01
2017-07-29T08:25:49.204Z,991.97
2017-07-29T08:26:49.213Z,991.96
2017-07-29T08:27:49.221Z,991.98
2017-07-29T08:28:49.232Z,991.99
2017-07-29T08:29:49.241Z,991.96
2017-07-29T08:30:49.250Z,991.89
2017-07-29T08:31:49.261Z,991.89
2017-07-29T08:32:49.265Z,991.99
2017-07-29T08:33:49.276Z,991.97
2017-07-29T08:34:52.837Z,991.92
2017-07-29T08:35:49.306Z,991.96
2017-07-29T08:36:49.300Z,991.97
2017-07-29T08:37:49.308Z,991.97
2017-07-29T08:38:49.316Z,991.9
2017-07-29T08:39:49.326Z,991.91
2017-07-29T08:40:49.332Z,992
2017-07-29T08:41:49.341Z,992.05
2017-07-29T08:42:49.349Z,992.11
2017-07-29T08:43:49.357Z,992.05
2017-07-29T08:44:49.366Z,992.03
2017-07-29T08:45:49.371Z,992.04
2017-07-29T08:46:49.379Z,992.01
2017-07-29T08:47:49.386Z,992
2017-07-29T08:48:49.394Z,991.95
2017-07-29T08:49:49.400Z,992.04
2017-07-29T08:50:49.412Z,992.02
2017-07-29T08:51:49.420Z,991.99
2017-07-29T08:52:49.424Z,991.99
2017-07-29T08:53:49.433Z,991.96
2017-07-29T08:54:49.439Z,991.92
2017-07-29T08:55:49.453Z,991.93
2017-07-29T08:56:49.455Z,991.9
2017-07-29T08:57:49.465Z,991.93
2017-07-29T08:58:49.471Z,991.79
2017-07-29T08:59:49.479Z,991.82
2017-07-29T09:00:49.487Z,991.85
2017-07-29T09:01:49.500Z,991.88
2017-07-29T09:02:49.505Z,991.87
2017-07-29T09:03:49.515Z,991.85
2017-07-29T09:04:49.519Z,991.85
2017-07-29T09:05:49.526Z,991.78
2017-07-29T09:06:49.534Z,991.77
2017-07-29T09:07:49.542Z,991.76
2017-07-29T09:08:49.549Z,991.73
2017-07-29T09:09:49.563Z,991.74
2017-07-29T09:10:49.570Z,991.75
2017-07-29T09:11:49.570Z,991.73
2017-07-29T09:12:49.613Z,991.74
2017-07-29T09:13:49.585Z,991.69
2017-07-29T09:14:49.598Z,991.67
2017-07-29T09:15:49.666Z,991.69
2017-07-29T09:16:49.617Z,991.66
2017-07-29T09:17:49.648Z,991.63
2017-07-29T09:18:49.666Z,991.67
2017-07-29T09:19:49.677Z,991.65
2017-07-29T09:20:49.636Z,991.66
2017-07-29T09:21:49.643Z,991.62
2017-07-29T09:22:49.648Z,991.62
2017-07-29T09:23:49.652Z,991.59
2017-07-29T09:24:49.672Z,991.6
2017-07-29T09:25:49.677Z,991.59
2017-07-29T09:26:49.671Z,991.63
2017-07-29T09:27:49.687Z,991.65
2017-07-29T09:28:49.688Z,991.63
2017-07-29T09:29:49.703Z,991.69
2017-07-29T09:30:49.704Z,991.66
2017-07-29T09:31:49.712Z,991.61
2017-07-29T09:32:49.716Z,991.62
2017-07-29T09:33:49.727Z,991.6
2017-07-29T09:34:49.722Z,991.59
2017-07-29T09:35:50.878Z,991.56
2017-07-29T09:36:49.738Z,991.64
2017-07-29T09:37:49.742Z,991.69
2017-07-29T09:38:49.746Z,991.65
2017-07-29T09:39:49.758Z,991.75
2017-07-29T09:40:49.760Z,991.73
2017-07-29T09:41:49.763Z,991.61
2017-07-29T09:42:49.766Z,991.62
2017-07-29T09:43:49.796Z,991.64
2017-07-29T09:44:49.784Z,991.56
2017-07-29T09:45:49.781Z,991.58
2017-07-29T09:46:49.786Z,991.55
2017-07-29T09:47:49.795Z,991.56
2017-07-29T09:48:49.806Z,991.55
2017-07-29T09:49:49.816Z,991.52
2017-07-29T09:50:49.849Z,991.54
2017-07-29T09:51:49.873Z,991.51
2017-07-29T09:52:49.861Z,991.55
2017-07-29T09:53:49.827Z,991.5
2017-07-29T09:54:49.855Z,991.43
2017-07-29T09:55:49.850Z,991.47
2017-07-29T09:56:49.847Z,991.46
2017-07-29T09:57:49.853Z,991.48
2017-07-29T09:58:49.858Z,991.52
2017-07-29T09:59:49.862Z,991.57
2017-07-29T10:00:49.869Z,991.49
2017-07-29T10:01:49.874Z,991.52
2017-07-29T10:02:49.883Z,991.51
2017-07-29T10:03:49.888Z,991.42
2017-07-29T10:04:49.894Z,991.42
2017-07-29T10:05:49.912Z,991.39
2017-07-29T10:06:49.914Z,991.36
2017-07-29T10:07:49.913Z,991.38
2017-07-29T10:08:49.918Z,991.4
2017-07-29T10:09:49.930Z,991.41
2017-07-29T10:10:49.929Z,991.43
2017-07-29T10:11:49.937Z,991.42
2017-07-29T10:12:49.941Z,991.32
2017-07-29T10:13:49.947Z,991.34
2017-07-29T10:14:49.955Z,991.33
2017-07-29T10:15:49.961Z,991.28
2017-07-29T10:16:49.967Z,991.26
2017-07-29T10:17:49.971Z,991.31
2017-07-29T10:18:49.984Z,991.35
2017-07-29T10:19:49.986Z,991.33
2017-07-29T10:20:49.991Z,991.3
2017-07-29T10:21:49.994Z,991.29
2017-07-29T10:22:50.008Z,991.23
2017-07-29T10:23:50.008Z,991.21
2017-07-29T10:24:50.013Z,991.22
2017-07-29T10:25:50.018Z,991.2
2017-07-29T10:26:50.023Z,991.23
2017-07-29T10:27:50.030Z,991.2
2017-07-29T10:28:50.036Z,991.19
2017-07-29T10:29:50.041Z,991.17
2017-07-29T10:30:50.047Z,991.14
2017-07-29T10:31:50.055Z,991.12
2017-07-29T10:32:50.057Z,991.13
2017-07-29T10:33:50.063Z,991.15
2017-07-29T10:34:50.069Z,991.11
2017-07-29T10:35:50.074Z,991.13
2017-07-29T10:36:50.080Z,991.1
2017-07-29T10:37:50.086Z,991.07
2017-07-29T10:38:50.096Z,991.01
2017-07-29T10:39:50.097Z,991.05
2017-07-29T10:40:50.104Z,991.01
2017-07-29T10:41:50.110Z,991.01
2017-07-29T10:42:50.115Z,990.98
2017-07-29T10:43:50.124Z,990.96
2017-07-29T10:44:50.128Z,991.05
2017-07-29T10:45:50.133Z,991.05
2017-07-29T10:46:50.138Z,991.01
2017-07-29T10:47:50.144Z,991.01
2017-07-29T10:48:50.156Z,991.03
2017-07-29T10:49:50.224Z,991.06
2017-07-29T10:50:50.163Z,991.04
2017-07-29T10:51:50.222Z,991.04
2017-07-29T10:52:50.173Z,990.99
2017-07-29T10:53:50.181Z,990.97
2017-07-29T10:54:50.184Z,990.93
2017-07-29T10:55:50.191Z,990.93
2017-07-29T10:56:50.196Z,990.91
2017-07-29T10:57:50.202Z,990.88
2017-07-29T10:58:50.207Z,990.85
2017-07-29T10:59:50.221Z,990.86
2017-07-29T11:00:50.221Z,990.86
2017-07-29T11:01:50.226Z,990.87
2017-07-29T11:02:50.233Z,990.9
2017-07-29T11:03:50.237Z,990.89
2017-07-29T11:04:50.244Z,990.89
2017-07-29T11:05:50.247Z,990.89
2017-07-29T11:06:51.257Z,990.95
2017-07-29T11:07:50.267Z,990.89
2017-07-29T11:08:50.267Z,990.92
2017-07-29T11:09:50.273Z,990.89
2017-07-29T11:10:50.284Z,990.87
2017-07-29T11:11:50.285Z,990.91
2017-07-29T11:12:50.290Z,990.89
2017-07-29T11:13:50.296Z,990.89
2017-07-29T11:14:50.303Z,990.92
2017-07-29T11:15:50.307Z,990.84
2017-07-29T11:16:50.314Z,990.81
2017-07-29T11:17:50.328Z,990.79
2017-07-29T11:18:50.326Z,990.73
2017-07-29T11:19:50.329Z,990.72
2017-07-29T11:20:50.337Z,990.69
2017-07-29T11:21:50.342Z,990.68
2017-07-29T11:22:50.350Z,990.66
2017-07-29T11:23:50.374Z,990.67
2017-07-29T11:24:50.394Z,990.64
2017-07-29T11:25:50.447Z,990.64
2017-07-29T11:26:50.455Z,990.62
2017-07-29T11:27:50.377Z,990.55
2017-07-29T11:28:50.392Z,990.55
2017-07-29T11:29:50.417Z,990.53
2017-07-29T11:30:50.403Z,990.54
2017-07-29T11:31:50.417Z,990.59
2017-07-29T11:32:50.408Z,990.56
2017-07-29T11:33:50.412Z,990.59
2017-07-29T11:34:50.420Z,990.6
2017-07-29T11:35:50.424Z,990.61
2017-07-29T11:36:50.430Z,990.55
2017-07-29T11:37:50.435Z,990.57
2017-07-29T11:38:50.450Z,990.56
2017-07-29T11:39:50.446Z,990.6
2017-07-29T11:40:50.453Z,990.63
2017-07-29T11:41:50.464Z,990.57
2017-07-29T11:42:50.463Z,990.58
2017-07-29T11:43:50.469Z,990.62
2017-07-29T11:44:50.475Z,990.58
2017-07-29T11:45:50.479Z,990.55
2017-07-29T11:46:50.486Z,990.55
2017-07-29T11:47:50.499Z,990.54
2017-07-29T11:48:50.496Z,990.52
2017-07-29T11:49:50.503Z,990.51
2017-07-29T11:50:50.506Z,990.55
2017-07-29T11:51:50.525Z,990.51
2017-07-29T11:52:50.517Z,990.52
2017-07-29T11:53:50.526Z,990.44
2017-07-29T11:54:50.533Z,990.5
2017-07-29T11:55:50.536Z,990.46
2017-07-29T11:56:50.542Z,990.44
2017-07-29T11:57:50.547Z,990.44
2017-07-29T11:58:50.551Z,990.42
2017-07-29T11:59:50.558Z,990.46
2017-07-29T12:00:50.566Z,990.39
2017-07-29T12:01:50.571Z,990.36
2017-07-29T12:02:50.575Z,990.31
2017-07-29T12:03:50.582Z,990.31
2017-07-29T12:04:50.585Z,990.31
2017-07-29T12:05:50.593Z,990.33
2017-07-29T12:06:50.599Z,990.25
2017-07-29T12:07:50.607Z,990.22
2017-07-29T12:08:50.611Z,990.23
2017-07-29T12:09:50.615Z,990.29
2017-07-29T12:10:50.624Z,990.12
2017-07-29T12:11:50.626Z,990.18
2017-07-29T12:12:50.631Z,990.09
2017-07-29T12:13:50.642Z,990.11
2017-07-29T12:14:50.642Z,990.07
2017-07-29T12:15:50.651Z,990.15
2017-07-29T12:16:50.656Z,990.08
2017-07-29T12:17:50.668Z,990.18
2017-07-29T12:18:50.671Z,990.11
2017-07-29T12:19:50.673Z,990.15
2017-07-29T12:20:50.680Z,990.12
2017-07-29T12:21:50.683Z,990.16
2017-07-29T12:22:50.686Z,990.07
2017-07-29T12:23:50.695Z,990.1
2017-07-29T12:24:50.701Z,990.06
2017-07-29T12:25:50.712Z,990.09
2017-07-29T12:26:50.711Z,990.09
2017-07-29T12:27:50.718Z,990.06
2017-07-29T12:28:50.725Z,990.05
2017-07-29T12:29:50.733Z,990.1
2017-07-29T12:30:50.734Z,990.1